Time;durP1;ratioP1;P1;durP2;ratioP2;P2;SDS_P1;SDS_P2;PMS_P1;PMS_P2;Temp;Humidity;BMP_temperature;BMP_pressure;BME280_temperature;BME280_humidity;BME280_pressure;Samples;Min_cycle;Max_cycle;Signal;HPM_P1;HPM_P2
2022/06/27 00:00:55;;;;;;;2.00;1.80;;;19.10;99.90;;;;;;5179978;28;19935;-62
2022/06/27 00:03:29;;;;;;;1.73;1.63;;;19.00;99.90;;;;;;5194060;28;20025;-59
2022/06/27 00:06:03;;;;;;;3.22;1.80;;;19.10;99.90;;;;;;5165651;28;20060;-61
2022/06/27 00:08:38;;;;;;;2.17;1.50;;;19.10;99.90;;;;;;5200823;28;20033;-61
2022/06/27 00:11:15;;;;;;;1.92;1.50;;;19.00;99.90;;;;;;5205973;28;20043;-59
2022/06/27 00:13:49;;;;;;;2.95;1.80;;;19.10;99.90;;;;;;5219971;28;20037;-62
2022/06/27 00:16:28;;;;;;;2.47;1.88;;;19.00;99.90;;;;;;5204056;28;20058;-61
2022/06/27 00:19:03;;;;;;;1.75;1.60;;;18.90;99.90;;;;;;5220828;28;20158;-60
2022/06/27 00:21:37;;;;;;;1.77;1.65;;;18.90;99.90;;;;;;5216238;28;20030;-62
2022/06/27 00:24:10;;;;;;;2.00;1.77;;;18.90;99.90;;;;;;5198470;28;20279;-62
2022/06/27 00:26:48;;;;;;;2.33;1.50;;;18.90;99.90;;;;;;5199941;28;20211;-60
2022/06/27 00:29:20;;;;;;;1.95;1.67;;;18.90;99.90;;;;;;5201038;28;20033;-61
2022/06/27 00:31:51;;;;;;;1.90;1.63;;;18.80;99.90;;;;;;5183093;28;20128;-61
2022/06/27 00:34:28;;;;;;;2.53;2.03;;;18.80;99.90;;;;;;5218511;28;20191;-61
2022/06/27 00:37:02;;;;;;;2.13;1.80;;;18.90;99.90;;;;;;5201936;28;20201;-62
2022/06/27 00:39:37;;;;;;;2.60;2.20;;;18.80;99.90;;;;;;5202260;28;20025;-61
2022/06/27 00:42:09;;;;;;;1.80;1.70;;;18.80;99.90;;;;;;5200296;28;20044;-61
2022/06/27 00:44:47;;;;;;;1.92;1.77;;;18.70;99.90;;;;;;5186441;28;20323;-60
2022/06/27 00:47:23;;;;;;;2.00;1.80;;;18.60;99.90;;;;;;5182972;28;20151;-61
2022/06/27 00:49:55;;;;;;;2.15;1.95;;;18.60;99.90;;;;;;5199134;28;20025;-61
2022/06/27 00:52:28;;;;;;;2.25;1.95;;;18.60;99.90;;;;;;5198017;28;20330;-60
2022/06/27 00:55:09;;;;;;;1.60;1.50;;;18.60;99.90;;;;;;5199002;28;20214;-60
2022/06/27 00:57:44;;;;;;;1.65;1.55;;;18.60;99.90;;;;;;5166894;28;20028;-61
2022/06/27 01:00:19;;;;;;;2.15;1.88;;;18.50;99.90;;;;;;5199378;28;20037;-61
2022/06/27 01:02:51;;;;;;;1.73;1.58;;;18.50;99.90;;;;;;5200713;28;20033;-61
2022/06/27 01:05:23;;;;;;;2.20;2.00;;;18.50;99.90;;;;;;5190234;28;20054;-62
2022/06/27 01:07:55;;;;;;;1.95;1.85;;;18.50;99.90;;;;;;5184076;28;20226;-60
2022/06/27 01:10:29;;;;;;;2.10;1.90;;;18.50;99.90;;;;;;5200963;28;20425;-60
2022/06/27 01:13:03;;;;;;;2.22;1.85;;;18.50;99.90;;;;;;5193985;28;20045;-60
2022/06/27 01:15:43;;;;;;;2.70;1.60;;;18.50;99.90;;;;;;5199635;28;20033;-62
2022/06/27 01:18:17;;;;;;;1.92;1.83;;;18.50;99.90;;;;;;5199233;28;20143;-59
2022/06/27 01:20:49;;;;;;;2.30;1.70;;;18.40;99.90;;;;;;5181588;28;20037;-62
2022/06/27 01:23:23;;;;;;;3.38;1.98;;;18.40;99.90;;;;;;5198968;28;20214;-61
2022/06/27 01:25:57;;;;;;;3.85;2.00;;;18.40;99.90;;;;;;5180121;28;20029;-59
2022/06/27 01:28:29;;;;;;;2.55;2.35;;;18.40;99.90;;;;;;5191934;28;20029;-61
2022/06/27 01:31:06;;;;;;;4.05;2.53;;;18.40;99.90;;;;;;5202290;28;20230;-60
2022/06/27 01:33:43;;;;;;;3.13;2.15;;;18.40;99.90;;;;;;5207730;28;20032;-60
2022/06/27 01:39:17;;;;;;;2.97;1.90;;;18.40;99.90;;;;;;5202660;28;20025;-62
2022/06/27 01:42:01;;;;;;;2.63;2.00;;;18.40;99.90;;;;;;5209066;28;20043;-61
2022/06/27 01:44:34;;;;;;;2.93;2.40;;;18.40;99.90;;;;;;5201385;28;20041;-60
2022/06/27 01:47:10;;;;;;;2.33;2.17;;;18.30;99.90;;;;;;5181974;28;20422;-61
2022/06/27 01:49:43;;;;;;;2.78;2.28;;;18.30;99.90;;;;;;5199041;28;20227;-60
2022/06/27 01:52:18;;;;;;;2.55;1.63;;;18.30;99.90;;;;;;5201191;28;20024;-63
2022/06/27 01:54:52;;;;;;;2.85;2.00;;;18.30;99.90;;;;;;5198691;28;20037;-60
2022/06/27 01:57:26;;;;;;;2.25;2.00;;;18.30;99.90;;;;;;5182828;28;20041;-60
2022/06/27 02:00:07;;;;;;;2.30;2.03;;;18.30;99.90;;;;;;5195217;28;20045;-60
2022/06/27 02:02:39;;;;;;;2.72;2.33;;;18.30;99.90;;;;;;5167140;28;20040;-59
2022/06/27 02:05:11;;;;;;;2.45;2.03;;;18.20;99.90;;;;;;5188128;28;20281;-59
2022/06/27 02:07:53;;;;;;;2.45;1.73;;;18.20;99.90;;;;;;5180868;28;20041;-60
2022/06/27 02:10:29;;;;;;;3.33;2.67;;;18.20;99.90;;;;;;5197373;28;20350;-60
2022/06/27 02:13:02;;;;;;;1.85;1.70;;;18.20;99.90;;;;;;5176937;28;20359;-62
2022/06/27 02:15:34;;;;;;;2.95;2.58;;;18.20;99.90;;;;;;5183409;28;20198;-60
2022/06/27 02:18:06;;;;;;;3.13;2.13;;;18.10;99.90;;;;;;5197400;28;20281;-61
2022/06/27 02:20:40;;;;;;;3.78;2.17;;;18.10;99.90;;;;;;5195095;28;20041;-61
2022/06/27 02:23:12;;;;;;;2.45;2.25;;;18.00;99.90;;;;;;5185136;28;20025;-62
2022/06/27 02:25:45;;;;;;;6.63;3.10;;;18.00;99.90;;;;;;5185165;28;20037;-62
2022/06/27 02:28:19;;;;;;;2.57;2.33;;;18.00;99.90;;;;;;5199450;28;20025;-61
2022/06/27 02:30:50;;;;;;;3.38;2.42;;;18.00;99.90;;;;;;5175175;28;20284;-60
2022/06/27 02:33:34;;;;;;;3.97;2.50;;;18.00;99.90;;;;;;5195271;28;20168;-61
2022/06/27 02:36:43;;;;;;;3.10;2.40;;;18.00;99.90;;;;;;5182493;28;20025;-61
2022/06/27 02:39:23;;;;;;;2.78;2.38;;;17.90;99.90;;;;;;5119317;28;20053;-60
2022/06/27 02:42:01;;;;;;;2.33;2.10;;;17.90;99.90;;;;;;5135780;28;20312;-61
2022/06/27 02:44:39;;;;;;;4.00;2.25;;;17.90;99.90;;;;;;5110815;28;20068;-62
2022/06/27 02:47:16;;;;;;;4.03;2.55;;;17.90;99.90;;;;;;5134221;28;20115;-60
2022/06/27 02:49:55;;;;;;;2.95;2.60;;;18.00;99.90;;;;;;5134290;28;20360;-61
2022/06/27 02:52:37;;;;;;;3.90;2.65;;;18.00;99.90;;;;;;5122987;28;20034;-60
2022/06/27 02:55:17;;;;;;;3.90;2.20;;;18.00;99.90;;;;;;5116507;28;20031;-60
2022/06/27 02:58:21;;;;;;;2.42;2.22;;;18.10;99.90;;;;;;5130564;28;20035;-62
2022/06/27 03:01:02;;;;;;;4.57;3.00;;;18.10;99.90;;;;;;5136019;28;20045;-61
2022/06/27 03:03:37;;;;;;;3.15;2.65;;;18.10;99.90;;;;;;5134032;28;20038;-61
2022/06/27 03:06:13;;;;;;;2.28;1.95;;;18.20;99.90;;;;;;5149472;28;20395;-61
2022/06/27 03:08:47;;;;;;;3.45;2.20;;;18.10;99.90;;;;;;5120010;28;20052;-59
2022/06/27 03:11:26;;;;;;;2.63;2.00;;;18.10;99.90;;;;;;5134141;28;20044;-60
2022/06/27 03:14:03;;;;;;;3.88;2.58;;;18.10;99.90;;;;;;5124123;28;20083;-60
2022/06/27 03:16:36;;;;;;;2.75;2.40;;;18.10;99.90;;;;;;5174300;28;20281;-62
2022/06/27 03:19:08;;;;;;;3.15;2.55;;;18.20;99.90;;;;;;5176218;28;20034;-61
2022/06/27 03:21:40;;;;;;;4.57;3.00;;;18.30;99.90;;;;;;5177838;28;20408;-61
2022/06/27 03:24:14;;;;;;;2.65;2.45;;;18.40;99.90;;;;;;5176087;28;20036;-60
2022/06/27 03:26:50;;;;;;;2.90;2.42;;;18.50;99.90;;;;;;5175202;28;20055;-60
2022/06/27 03:29:25;;;;;;;2.95;2.45;;;18.60;99.90;;;;;;5184328;28;20268;-61
2022/06/27 03:32:00;;;;;;;2.65;2.30;;;18.70;99.90;;;;;;5180365;28;20241;-60
2022/06/27 03:34:34;;;;;;;3.88;2.92;;;18.80;99.90;;;;;;5195984;28;20029;-61
2022/06/27 03:37:07;;;;;;;2.95;2.33;;;18.90;99.90;;;;;;5196683;28;20036;-62
2022/06/27 03:39:47;;;;;;;2.63;2.38;;;19.10;99.90;;;;;;5186972;28;20333;-60
2022/06/27 03:42:26;;;;;;;2.97;2.40;;;19.20;99.90;;;;;;5181145;28;20341;-59
2022/06/27 03:44:58;;;;;;;2.78;2.20;;;19.40;99.90;;;;;;5209476;28;20037;-61
2022/06/27 03:47:37;;;;;;;3.03;2.72;;;19.70;99.90;;;;;;5200679;28;20115;-61
2022/06/27 03:50:15;;;;;;;5.03;2.40;;;19.80;99.90;;;;;;5199021;28;20341;-61
2022/06/27 03:52:49;;;;;;;3.63;2.28;;;19.90;99.90;;;;;;5207901;28;20043;-61
2022/06/27 03:55:25;;;;;;;2.25;2.05;;;20.10;99.90;;;;;;5203402;28;20029;-61
2022/06/27 03:58:06;;;;;;;2.85;2.53;;;20.20;99.90;;;;;;5212813;28;20217;-62
2022/06/27 04:00:38;;;;;;;3.95;2.58;;;20.30;99.90;;;;;;5179394;28;20065;-60
2022/06/27 04:03:09;;;;;;;2.80;2.55;;;20.40;99.90;;;;;;5210171;28;20051;-62
2022/06/27 04:05:41;;;;;;;3.88;2.50;;;20.50;99.90;;;;;;5185530;28;20048;-61
2022/06/27 04:08:15;;;;;;;2.92;2.60;;;20.70;99.90;;;;;;5208599;28;20037;-61
2022/06/27 04:10:54;;;;;;;3.10;2.53;;;20.80;99.90;;;;;;5205835;28;20048;-60
2022/06/27 04:13:31;;;;;;;3.60;2.33;;;21.00;99.90;;;;;;5224150;28;20025;-63
2022/06/27 04:16:09;;;;;;;4.00;2.33;;;21.30;99.90;;;;;;5220524;28;20234;-61
2022/06/27 04:18:44;;;;;;;2.67;2.15;;;21.50;99.90;;;;;;5221755;28;20044;-61
2022/06/27 04:21:16;;;;;;;2.90;2.57;;;21.70;99.90;;;;;;5205245;28;20330;-61
2022/06/27 04:23:47;;;;;;;2.63;2.10;;;21.80;99.90;;;;;;5221876;28;20029;-63
2022/06/27 04:26:22;;;;;;;2.50;2.30;;;21.90;99.90;;;;;;5220798;28;20048;-62
2022/06/27 04:28:57;;;;;;;2.60;2.30;;;21.90;99.90;;;;;;5231776;28;20048;-62
2022/06/27 04:31:29;;;;;;;2.60;2.40;;;22.00;99.90;;;;;;5239358;28;20042;-61
2022/06/27 04:34:04;;;;;;;2.47;2.08;;;22.20;99.90;;;;;;5221629;28;20040;-63
2022/06/27 04:36:36;;;;;;;2.20;2.00;;;22.30;99.90;;;;;;5222134;28;20041;-61
2022/06/27 04:39:15;;;;;;;2.22;2.03;;;22.40;99.90;;;;;;5222877;28;20037;-62
2022/06/27 04:41:52;;;;;;;4.30;2.08;;;22.70;99.90;;;;;;5219960;28;20040;-62
2022/06/27 04:44:26;;;;;;;2.30;2.10;;;23.00;99.90;;;;;;5219098;28;20045;-62
2022/06/27 04:47:02;;;;;;;2.22;1.98;;;23.20;99.90;;;;;;5205144;28;20039;-61
2022/06/27 04:49:42;;;;;;;2.78;2.20;;;23.30;99.90;;;;;;5222421;28;20043;-62
2022/06/27 04:52:15;;;;;;;2.25;1.98;;;23.50;99.90;;;;;;5218468;28;20036;-62
2022/06/27 04:54:53;;;;;;;2.50;1.80;;;23.80;99.90;;;;;;5205499;28;20039;-62
2022/06/27 04:57:33;;;;;;;2.10;1.90;;;24.20;99.90;;;;;;5220169;28;20253;-62
2022/06/27 05:00:08;;;;;;;2.15;1.95;;;24.50;99.90;;;;;;5221640;28;20025;-62
2022/06/27 05:02:40;;;;;;;3.22;2.10;;;24.60;99.90;;;;;;5182418;28;20047;-61
2022/06/27 05:05:14;;;;;;;3.50;2.15;;;24.80;99.90;;;;;;5212154;28;20475;-61
2022/06/27 05:07:46;;;;;;;1.70;1.60;;;25.30;99.90;;;;;;5208318;28;20024;-61
2022/06/27 05:10:20;;;;;;;2.42;1.98;;;25.50;99.90;;;;;;5221611;28;20218;-62
2022/06/27 05:12:52;;;;;;;2.40;2.15;;;25.40;99.90;;;;;;5218294;28;20041;-62
2022/06/27 05:15:23;;;;;;;2.25;1.80;;;25.40;99.90;;;;;;5223659;28;20039;-61
2022/06/27 05:17:57;;;;;;;3.13;2.00;;;25.40;99.90;;;;;;5241463;28;20058;-61
2022/06/27 05:20:32;;;;;;;1.98;1.63;;;25.30;99.90;;;;;;5233845;28;20335;-62
2022/06/27 05:23:03;;;;;;;1.88;1.67;;;25.50;99.90;;;;;;5219562;28;20537;-62
2022/06/27 05:25:43;;;;;;;2.22;1.95;;;25.90;99.90;;;;;;5219641;28;20033;-62
2022/06/27 05:28:19;;;;;;;2.25;1.95;;;25.70;99.90;;;;;;5229788;28;20020;-64
2022/06/27 05:30:55;;;;;;;1.60;1.50;;;26.00;99.90;;;;;;5235883;28;20318;-61
2022/06/27 05:33:29;;;;;;;2.92;1.92;;;26.40;99.90;;;;;;5240144;28;20047;-66
2022/06/27 05:36:01;;;;;;;2.97;2.50;;;26.50;99.90;;;;;;5242968;28;20031;-62
2022/06/27 05:38:37;;;;;;;4.53;2.45;;;26.70;99.90;;;;;;5232065;28;20344;-63
2022/06/27 05:41:09;;;;;;;2.25;2.05;;;26.70;99.90;;;;;;5202977;28;20032;-62
2022/06/27 05:43:43;;;;;;;2.50;2.30;;;27.10;99.90;;;;;;5220330;28;20041;-62
2022/06/27 05:46:19;;;;;;;3.25;2.40;;;27.20;99.90;;;;;;5206542;28;20036;-62
2022/06/27 05:48:50;;;;;;;2.33;1.95;;;27.10;99.90;;;;;;5222180;28;20246;-61
2022/06/27 05:51:24;;;;;;;2.40;2.17;;;26.90;99.90;;;;;;5221889;28;20418;-62
2022/06/27 05:54:02;;;;;;;2.38;1.85;;;27.10;99.90;;;;;;5220388;28;20031;-61
2022/06/27 05:56:36;;;;;;;2.22;2.03;;;27.50;99.90;;;;;;5220137;28;20046;-61
2022/06/27 05:59:11;;;;;;;3.78;1.90;;;27.30;99.90;;;;;;5222234;28;20051;-62
2022/06/27 06:01:48;;;;;;;3.22;2.30;;;27.00;99.90;;;;;;5220261;28;20035;-61
2022/06/27 06:04:27;;;;;;;2.28;1.73;;;27.20;99.90;;;;;;5209883;28;20039;-62
2022/06/27 06:07:01;;;;;;;1.80;1.70;;;27.40;99.90;;;;;;5231933;28;20029;-61
2022/06/27 06:09:38;;;;;;;3.10;1.88;;;27.60;99.90;;;;;;5214868;28;20333;-62
2022/06/27 06:12:12;;;;;;;1.92;1.70;;;27.80;99.90;;;;;;5197955;28;20043;-62
2022/06/27 06:14:46;;;;;;;1.77;1.67;;;28.10;99.90;;;;;;5199608;28;20022;-61
2022/06/27 06:17:20;;;;;;;2.35;1.70;;;28.30;99.90;;;;;;5200278;28;20037;-61
2022/06/27 06:19:58;;;;;;;2.55;2.10;;;28.50;99.90;;;;;;5189836;28;20361;-61
2022/06/27 06:22:29;;;;;;;3.97;2.33;;;28.70;99.90;;;;;;5187366;28;20021;-61
2022/06/27 06:25:07;;;;;;;2.10;1.75;;;29.30;99.90;;;;;;5202666;28;20324;-61
2022/06/27 06:27:44;;;;;;;2.15;1.77;;;29.40;99.90;;;;;;5200148;28;20032;-62
2022/06/27 06:30:24;;;;;;;1.65;1.52;;;29.40;99.90;;;;;;5198713;28;20033;-61
2022/06/27 06:33:02;;;;;;;3.25;1.70;;;30.00;99.90;;;;;;5216708;28;20039;-63
2022/06/27 06:35:36;;;;;;;4.30;1.20;;;30.20;99.90;;;;;;5203205;28;20253;-62
2022/06/27 06:38:08;;;;;;;2.67;1.90;;;30.50;99.90;;;;;;5199394;28;20052;-64
2022/06/27 06:40:42;;;;;;;2.50;1.60;;;30.80;99.90;;;;;;5213334;28;20025;-64
2022/06/27 06:43:14;;;;;;;;;;;31.30;99.90;;;;;;5199076;28;20316;-62
2022/06/27 06:45:50;;;;;;;2.50;1.70;;;31.90;99.90;;;;;;5201112;28;19909;-62
2022/06/27 06:48:23;;;;;;;1.25;1.15;;;30.90;99.90;;;;;;5199329;28;20045;-66
2022/06/27 06:50:55;;;;;;;2.45;1.42;;;31.00;99.90;;;;;;5196400;28;20029;-61
2022/06/27 06:53:35;;;;;;;3.10;1.50;;;31.30;99.90;;;;;;5202475;28;20207;-62
2022/06/27 06:56:07;;;;;;;2.13;1.33;;;31.50;99.90;;;;;;5198821;28;20208;-62
2022/06/27 06:58:42;;;;;;;1.90;1.48;;;31.20;99.90;;;;;;5184054;28;20048;-61
2022/06/27 07:01:14;;;;;;;5.20;1.67;;;31.10;99.90;;;;;;5181802;28;20036;-61
2022/06/27 07:03:48;;;;;;;2.50;1.42;;;31.60;99.90;;;;;;5181659;28;20035;-63
2022/06/27 07:06:24;;;;;;;2.13;1.70;;;32.10;99.90;;;;;;5190177;28;20414;-61
2022/06/27 07:09:02;;;;;;;2.28;1.42;;;32.00;99.90;;;;;;5197679;28;20048;-62
2022/06/27 07:11:40;;;;;;;1.92;1.73;;;31.70;99.90;;;;;;5200761;28;20021;-61
2022/06/27 07:14:13;;;;;;;1.60;1.50;;;31.70;99.90;;;;;;5201555;28;20033;-61
2022/06/27 07:16:46;;;;;;;1.37;1.23;;;31.60;99.90;;;;;;5202140;28;20186;-61
2022/06/27 07:19:19;;;;;;;1.20;1.20;;;31.40;99.90;;;;;;5202277;28;20217;-62
2022/06/27 07:21:57;;;;;;;1.58;1.48;;;31.30;99.90;;;;;;5198813;28;20229;-62
2022/06/27 07:24:28;;;;;;;1.80;1.70;;;31.20;99.90;;;;;;5191398;28;20029;-62
2022/06/27 07:27:05;;;;;;;2.08;1.70;;;31.20;99.90;;;;;;5204097;28;20031;-61
2022/06/27 07:29:39;;;;;;;3.17;1.50;;;31.10;99.90;;;;;;5201046;28;20092;-60
2022/06/27 07:32:11;;;;;;;5.38;1.60;;;30.90;99.90;;;;;;5196416;28;20044;-64
2022/06/27 07:34:47;;;;;;;7.28;2.08;;;31.40;99.90;;;;;;5195965;28;20037;-61
2022/06/27 07:37:25;;;;;;;2.95;1.52;;;31.60;99.90;;;;;;5196226;28;20038;-63
2022/06/27 07:39:56;;;;;;;1.23;1.13;;;31.80;99.90;;;;;;5204836;28;20060;-61
2022/06/27 07:42:31;;;;;;;2.28;1.50;;;31.70;99.90;;;;;;5197195;28;20037;-61
2022/06/27 07:45:05;;;;;;;4.18;1.70;;;31.80;99.90;;;;;;5197162;28;20025;-61
2022/06/27 07:47:37;;;;;;;2.92;1.33;;;32.10;99.90;;;;;;5197885;28;20298;-60
2022/06/27 07:50:10;;;;;;;3.78;1.50;;;32.50;99.90;;;;;;5214430;28;20029;-62
2022/06/27 07:55:31;;;;;;;7.03;1.33;;;33.00;99.90;;;;;;5183481;28;20250;-61
2022/06/27 07:58:05;;;;;;;1.55;1.45;;;32.90;99.90;;;;;;5199313;28;20041;-62
2022/06/27 08:00:39;;;;;;;1.60;1.50;;;33.00;99.90;;;;;;5198773;28;20318;-61
2022/06/27 08:06:19;;;;;;;2.97;1.60;;;32.10;99.90;;;;;;5201089;28;20262;-63
2022/06/27 08:08:58;;;;;;;1.63;1.50;;;32.50;99.90;;;;;;5203078;28;20045;-62
2022/06/27 08:11:43;;;;;;;1.55;1.20;;;32.30;99.90;;;;;;5180421;28;20303;-64
2022/06/27 08:14:19;;;;;;;1.65;1.55;;;32.70;99.90;;;;;;5199132;28;20035;-60
2022/06/27 08:16:52;;;;;;;1.40;1.30;;;32.90;99.90;;;;;;5191973;28;20309;-62
2022/06/27 08:19:29;;;;;;;1.58;1.42;;;33.00;99.90;;;;;;5201830;28;20037;-62
2022/06/27 08:22:06;;;;;;;2.67;1.67;;;33.10;99.90;;;;;;5197504;28;20445;-63
2022/06/27 08:24:44;;;;;;;1.60;1.50;;;33.10;99.90;;;;;;5199272;28;20041;-61
2022/06/27 08:27:15;;;;;;;1.65;1.52;;;33.20;99.90;;;;;;5218019;28;20279;-60
2022/06/27 08:29:50;;;;;;;1.45;1.30;;;33.30;99.90;;;;;;5202208;28;20048;-61
2022/06/27 08:32:21;;;;;;;1.80;1.70;;;33.10;99.90;;;;;;5204226;28;20016;-62
2022/06/27 08:34:57;;;;;;;1.58;1.40;;;33.30;99.90;;;;;;5194691;28;20044;-61
2022/06/27 08:37:29;;;;;;;1.67;1.30;;;33.20;99.90;;;;;;5205274;28;20034;-63
2022/06/27 08:40:04;;;;;;;1.23;1.13;;;33.20;99.90;;;;;;5184456;28;20069;-62
2022/06/27 08:42:35;;;;;;;2.30;1.30;;;33.40;99.90;;;;;;5194638;28;20310;-62
2022/06/27 08:45:12;;;;;;;2.30;1.48;;;33.50;99.90;;;;;;5194593;28;20044;-60
2022/06/27 08:47:44;;;;;;;1.77;1.40;;;33.40;99.90;;;;;;5178894;28;20029;-60
2022/06/27 08:50:17;;;;;;;3.38;1.50;;;33.60;99.90;;;;;;5196432;28;20230;-61
2022/06/27 08:52:54;;;;;;;1.83;1.48;;;33.50;99.90;;;;;;5181284;28;20044;-62
2022/06/27 08:55:30;;;;;;;2.05;1.35;;;33.60;99.90;;;;;;5202739;28;20039;-62
2022/06/27 08:58:10;;;;;;;1.60;1.50;;;34.20;99.90;;;;;;5192351;28;20038;-61
2022/06/27 09:00:47;;;;;;;2.65;1.70;;;34.20;99.90;;;;;;5199927;28;20025;-61
2022/06/27 09:03:24;;;;;;;4.60;1.77;;;34.40;99.90;;;;;;5170764;28;20056;-61
2022/06/27 09:06:08;;;;;;;1.60;1.30;;;34.30;99.90;;;;;;5191718;28;20049;-61
2022/06/27 09:09:13;;;;;;;2.05;1.60;;;34.30;99.90;;;;;;5209960;28;20036;-62
2022/06/27 09:11:46;;;;;;;3.42;1.30;;;34.30;99.90;;;;;;5222759;28;20043;-61
2022/06/27 09:14:43;;;;;;;1.47;1.37;;;34.30;99.90;;;;;;5181630;28;20216;-63
2022/06/27 09:17:21;;;;;;;1.40;1.30;;;34.10;99.90;;;;;;5173778;28;20037;-61
2022/06/27 09:19:56;;;;;;;4.10;1.75;;;33.80;99.90;;;;;;5211342;28;20053;-62
2022/06/27 09:22:28;;;;;;;2.13;1.65;;;33.40;99.90;;;;;;5216862;28;20549;-60
2022/06/27 09:25:20;;;;;;;1.50;1.40;;;33.80;99.90;;;;;;5227918;28;20029;-61
2022/06/27 09:27:52;;;;;;;3.20;1.40;;;33.90;99.90;;;;;;5208380;28;20040;-62
2022/06/27 09:30:31;;;;;;;1.70;1.33;;;34.00;99.90;;;;;;5199588;28;20029;-61
2022/06/27 09:33:04;;;;;;;1.48;1.38;;;34.00;99.90;;;;;;5217370;28;20033;-61
2022/06/27 09:35:38;;;;;;;1.75;1.45;;;33.80;99.90;;;;;;5221797;28;20416;-62
2022/06/27 09:38:13;;;;;;;1.30;1.20;;;34.30;99.90;;;;;;5204643;28;20345;-62
2022/06/27 09:40:48;;;;;;;1.73;1.63;;;34.10;99.90;;;;;;5200550;28;20314;-61
2022/06/27 09:43:22;;;;;;;1.35;1.25;;;34.00;99.90;;;;;;5210270;28;20046;-61
2022/06/27 09:45:59;;;;;;;2.13;1.92;;;34.20;99.90;;;;;;5216869;28;20041;-60
2022/06/27 09:48:31;;;;;;;2.78;1.30;;;34.10;99.90;;;;;;5224596;28;20342;-63
2022/06/27 09:51:04;;;;;;;2.03;1.70;;;34.20;99.90;;;;;;5186289;28;20330;-61
2022/06/27 09:53:39;;;;;;;1.50;1.20;;;34.30;99.90;;;;;;5224181;28;20044;-62
2022/06/27 09:56:18;;;;;;;4.80;1.50;;;34.60;99.90;;;;;;5201304;28;20324;-61
2022/06/27 09:58:54;;;;;;;4.40;1.45;;;34.40;99.90;;;;;;5200066;28;20184;-61
2022/06/27 10:01:28;;;;;;;2.08;1.50;;;34.50;99.90;;;;;;5216722;28;20195;-61
2022/06/27 10:04:11;;;;;;;1.83;1.73;;;34.60;99.90;;;;;;5202431;28;20235;-60
2022/06/27 10:06:49;;;;;;;4.10;1.83;;;34.70;99.90;;;;;;5190324;28;20238;-62
2022/06/27 10:09:24;;;;;;;1.65;1.30;;;35.20;99.90;;;;;;5197367;28;20051;-61
2022/06/27 10:12:24;;;;;;;1.67;1.40;;;35.00;99.90;;;;;;5213376;28;20076;-61
2022/06/27 10:15:11;;;;;;;1.70;1.60;;;34.60;99.90;;;;;;5208239;28;20220;-62
2022/06/27 10:17:51;;;;;;;1.73;1.58;;;34.90;99.90;;;;;;5191842;28;20045;-60
2022/06/27 10:20:29;;;;;;;1.63;1.40;;;35.00;99.90;;;;;;5184988;28;20056;-62
2022/06/27 10:23:04;;;;;;;3.05;1.95;;;35.70;99.90;;;;;;5207966;28;20051;-60
2022/06/27 10:25:42;;;;;;;2.30;2.10;;;35.00;99.90;;;;;;5201696;28;20032;-62
2022/06/27 10:28:14;;;;;;;1.80;1.70;;;35.20;99.90;;;;;;5202860;28;20021;-62
2022/06/27 10:30:59;;;;;;;3.38;1.73;;;35.00;99.90;;;;;;5182634;28;20037;-61
2022/06/27 10:33:34;;;;;;;1.88;1.48;;;34.90;99.90;;;;;;5199653;28;20349;-60
2022/06/27 10:36:14;;;;;;;1.50;1.25;;;35.60;99.90;;;;;;5201315;28;20039;-62
2022/06/27 10:38:54;;;;;;;1.92;1.80;;;35.30;99.90;;;;;;5209345;28;20192;-61
2022/06/27 10:41:25;;;;;;;2.60;1.77;;;35.70;99.90;;;;;;5183746;28;20032;-61
2022/06/27 10:44:07;;;;;;;2.30;1.45;;;35.60;99.90;;;;;;5193783;28;20048;-63
2022/06/27 10:46:41;;;;;;;3.25;1.92;;;36.10;99.90;;;;;;5199020;28;20025;-62
2022/06/27 10:49:21;;;;;;;1.83;1.52;;;36.60;99.90;;;;;;5198967;28;20049;-62
2022/06/27 10:52:24;;;;;;;1.80;1.50;;;36.70;99.90;;;;;;5184200;28;20033;-63
2022/06/27 10:54:58;;;;;;;1.50;1.40;;;36.80;99.90;;;;;;5200651;28;20051;-61
2022/06/27 10:57:42;;;;;;;1.98;1.55;;;37.80;99.90;;;;;;5182961;28;20053;-62
2022/06/27 11:00:40;;;;;;;1.70;1.60;;;38.20;99.90;;;;;;5186740;28;20318;-63
2022/06/27 11:03:25;;;;;;;2.08;1.30;;;38.20;99.90;;;;;;5199793;28;20532;-63
2022/06/27 11:06:04;;;;;;;6.38;1.67;;;38.00;99.90;;;;;;5213300;28;20049;-61
2022/06/27 11:08:37;;;;;;;1.70;1.60;;;38.70;99.90;;;;;;5187017;28;20046;-62
2022/06/27 11:11:15;;;;;;;;;;;38.40;99.90;;;;;;5189088;28;20041;-62
2022/06/27 11:13:53;;;;;;;1.73;1.63;;;38.60;99.90;;;;;;5196380;28;19917;-62
2022/06/27 11:16:37;;;;;;;1.70;1.60;;;38.50;99.90;;;;;;5215224;28;20025;-64
2022/06/27 11:22:03;;;;;;;2.85;1.55;;;39.40;99.90;;;;;;5213107;28;19909;-61
2022/06/27 11:24:37;;;;;;;1.80;1.60;;;38.30;99.90;;;;;;5198098;28;20045;-61
2022/06/27 11:27:09;;;;;;;1.70;1.60;;;37.40;99.90;;;;;;5183997;28;20449;-64
2022/06/27 11:32:42;;;;;;;1.55;1.45;;;39.70;99.90;;;;;;5177242;28;20313;-64
2022/06/27 11:35:16;;;;;;;3.67;1.63;;;40.60;99.90;;;;;;5201320;28;20049;-61
2022/06/27 11:37:48;;;;;;;2.15;1.95;;;41.00;99.90;;;;;;5208275;28;20064;-62
2022/06/27 11:40:25;;;;;;;1.98;1.70;;;41.00;99.90;;;;;;5182609;28;20195;-60
2022/06/27 11:42:57;;;;;;;2.30;2.00;;;40.40;99.90;;;;;;5182566;28;20033;-60
2022/06/27 11:45:46;;;;;;;1.95;1.75;;;40.40;99.90;;;;;;5200300;28;20025;-60
2022/06/27 11:48:22;;;;;;;1.73;1.55;;;41.00;99.90;;;;;;5198323;28;20041;-63
2022/06/27 11:50:56;;;;;;;2.00;1.85;;;41.70;99.90;;;;;;5199196;28;20050;-63
2022/06/27 11:53:30;;;;;;;1.58;1.48;;;40.50;99.90;;;;;;5199621;28;20034;-63
2022/06/27 11:56:26;;;;;;;1.77;1.35;;;40.30;99.90;;;;;;5199431;28;20041;-62
2022/06/27 11:59:03;;;;;;;1.75;1.65;;;40.40;99.90;;;;;;5208792;28;20029;-62
2022/06/27 12:01:59;;;;;;;1.83;1.58;;;41.30;99.90;;;;;;5180219;28;20390;-61
2022/06/27 12:04:40;;;;;;;3.17;1.73;;;41.40;99.90;;;;;;5196409;28;20062;-62
2022/06/27 12:07:15;;;;;;;2.85;1.98;;;41.30;99.90;;;;;;5207805;28;20028;-64
2022/06/27 12:09:56;;;;;;;3.30;1.80;;;40.50;99.90;;;;;;5217073;28;20036;-61
2022/06/27 12:12:29;;;;;;;2.20;1.48;;;39.60;99.90;;;;;;5222032;28;20043;-63
2022/06/27 12:15:00;;;;;;;2.25;1.58;;;41.00;99.90;;;;;;5205951;28;20054;-61
2022/06/27 12:17:44;;;;;;;4.03;1.70;;;42.50;99.90;;;;;;5225551;28;20320;-60
2022/06/27 12:20:21;;;;;;;1.92;1.70;;;41.50;99.90;;;;;;5224944;28;20041;-60
2022/06/27 12:23:00;;;;;;;1.55;1.45;;;41.10;99.90;;;;;;5237226;28;20051;-62
2022/06/27 12:25:40;;;;;;;2.25;2.05;;;41.00;99.90;;;;;;5221647;28;20025;-63
2022/06/27 12:28:14;;;;;;;1.60;1.50;;;39.80;99.90;;;;;;5225127;28;20027;-62
2022/06/27 12:30:48;;;;;;;4.50;2.28;;;40.50;99.90;;;;;;5217398;28;20339;-60
2022/06/27 12:33:22;;;;;;;1.90;1.77;;;40.50;99.90;;;;;;5225536;28;20024;-62
2022/06/27 12:36:01;;;;;;;2.08;1.75;;;40.20;99.90;;;;;;5227653;28;20033;-62
2022/06/27 12:38:35;;;;;;;2.85;1.80;;;40.60;99.90;;;;;;5220026;28;20035;-61
2022/06/27 12:41:14;;;;;;;2.40;1.67;;;40.30;99.90;;;;;;5206630;28;20037;-61
2022/06/27 12:43:49;;;;;;;2.53;1.45;;;40.60;99.90;;;;;;5219558;28;20101;-63
2022/06/27 12:46:21;;;;;;;3.58;1.80;;;40.60;99.90;;;;;;5223047;28;20037;-61
2022/06/27 12:48:57;;;;;;;4.20;1.70;;;40.10;99.90;;;;;;5226226;28;20021;-65
2022/06/27 12:51:31;;;;;;;4.13;1.92;;;40.90;99.90;;;;;;5230428;28;20302;-62
2022/06/27 12:54:11;;;;;;;2.30;1.60;;;41.70;99.90;;;;;;5231101;28;20025;-63
2022/06/27 12:56:46;;;;;;;6.25;2.45;;;41.90;99.90;;;;;;5228123;28;20234;-62
2022/06/27 12:59:20;;;;;;;1.98;1.83;;;42.10;99.90;;;;;;5212743;28;20045;-62
2022/06/27 13:01:55;;;;;;;3.20;1.92;;;42.50;99.90;;;;;;5217253;28;20045;-62
2022/06/27 13:04:30;;;;;;;1.67;1.58;;;41.20;99.90;;;;;;5212257;28;20020;-62
2022/06/27 13:07:02;;;;;;;2.22;1.55;;;39.50;99.90;;;;;;5203591;28;20306;-62
2022/06/27 13:09:36;;;;;;;1.70;1.58;;;40.30;99.90;;;;;;5198235;28;20041;-62
2022/06/27 13:12:11;;;;;;;2.15;1.70;;;41.10;99.90;;;;;;5220376;28;20030;-61
2022/06/27 13:14:47;;;;;;;2.13;1.75;;;40.40;99.90;;;;;;5210262;28;20051;-62
2022/06/27 13:17:18;;;;;;;3.28;1.58;;;40.80;99.90;;;;;;5204934;28;20031;-61
2022/06/27 13:19:52;;;;;;;2.53;1.77;;;41.40;99.90;;;;;;5219224;28;20025;-62
2022/06/27 13:22:29;;;;;;;2.00;1.70;;;41.70;99.90;;;;;;5219412;28;20037;-61
2022/06/27 13:25:00;;;;;;;1.65;1.55;;;42.70;99.90;;;;;;5203573;28;20037;-61
2022/06/27 13:27:32;;;;;;;2.22;1.70;;;42.70;99.90;;;;;;5194476;28;20352;-63
2022/06/27 13:30:13;;;;;;;2.25;1.80;;;42.20;99.90;;;;;;5212426;28;20038;-63
2022/06/27 13:32:47;;;;;;;4.72;2.60;;;42.10;99.90;;;;;;5211108;28;20218;-63
2022/06/27 13:35:23;;;;;;;2.00;1.90;;;43.30;99.90;;;;;;5204886;28;20368;-61
2022/06/27 13:37:54;;;;;;;2.13;1.70;;;43.00;99.90;;;;;;5217635;28;20033;-62
2022/06/27 13:40:32;;;;;;;1.75;1.65;;;40.40;99.90;;;;;;5201111;28;20028;-61
2022/06/27 13:43:08;;;;;;;1.83;1.73;;;41.00;99.90;;;;;;5198074;28;20309;-61
2022/06/27 13:45:42;;;;;;;2.05;1.70;;;41.90;99.90;;;;;;5210337;28;20041;-61
2022/06/27 13:48:19;;;;;;;2.20;2.00;;;41.50;99.90;;;;;;5199708;28;20323;-62